Kirkburton, United Kingdom
Current Conditions -  °F | °C
As of 5:50 PM on Tuesday 21 Oct 2014 (Local Time) from EGNM Reporting Station
Few Clouds Few Clouds  
Wind Chill: 35°   Ceiling: Unl
Heat Index: 45°   Visibility: 6mi
Dew Point: 34°   Wind: 26mph
Humidity: 66%   Direction: 290°WNW
Pressure: 29.77"   Gusts: 38mph
Location:  53.61°N, 1.7°W
Report Text: EGNM 211650Z 29023G33KT 9999 FEW028CB 07/01 Q1008
Loading
Personal Weather Stations






























Interactive Weather Map
Tropical Storm Tracking
New forecast layout! Learn more

10-Day Weather Forecast

Advertisements
Track Severe Weather on mobile